createdAt,value
2019-03-05T00:01:38.081Z,0.43
2019-03-05T00:04:05.369Z,0.67
2019-03-05T00:06:32.678Z,0.60
2019-03-05T00:08:59.923Z,0.67
2019-03-05T00:11:27.206Z,1.07
2019-03-05T00:13:54.495Z,1.10
2019-03-05T00:16:21.741Z,0.90
2019-03-05T00:18:49.028Z,1.13
2019-03-05T00:21:16.675Z,0.80
2019-03-05T00:23:45.944Z,1.13
2019-03-05T00:26:13.220Z,1.23
2019-03-05T00:29:08.487Z,1.37
2019-03-05T00:31:37.052Z,1.53
2019-03-05T00:34:45.660Z,1.37
2019-03-05T00:37:46.349Z,1.30
2019-03-05T00:40:42.165Z,1.00
2019-03-05T00:43:18.815Z,1.37
2019-03-05T00:46:27.980Z,0.90
2019-03-05T00:49:29.628Z,1.37
2019-03-05T00:52:26.692Z,0.90
2019-03-05T00:55:45.373Z,0.83
2019-03-05T00:58:25.605Z,1.23
2019-03-05T01:01:21.327Z,1.37
2019-03-05T01:04:30.752Z,1.00
2019-03-05T01:06:58.010Z,1.20
2019-03-05T01:09:44.744Z,1.63
2019-03-05T01:12:13.908Z,1.00
2019-03-05T01:14:41.754Z,1.20
2019-03-05T01:17:09.001Z,1.03
2019-03-05T01:19:36.347Z,1.37
2019-03-05T01:22:03.743Z,0.97
2019-03-05T01:24:31.063Z,1.17
2019-03-05T01:26:58.291Z,1.30
2019-03-05T01:29:25.606Z,1.37
2019-03-05T01:32:09.004Z,1.33
2019-03-05T01:34:41.816Z,1.30
2019-03-05T01:37:09.090Z,1.43
2019-03-05T01:40:00.495Z,1.50
2019-03-05T01:42:35.276Z,2.00
2019-03-05T01:45:05.445Z,1.47
2019-03-05T01:47:44.986Z,1.87
2019-03-05T01:50:20.242Z,1.83
2019-03-05T01:52:48.380Z,1.40
2019-03-05T01:55:16.244Z,1.37
2019-03-05T01:57:44.531Z,2.47
2019-03-05T02:00:12.129Z,2.50
2019-03-05T02:02:39.673Z,2.03
2019-03-05T02:05:07.380Z,2.43
2019-03-05T02:07:34.623Z,1.87
2019-03-05T02:10:05.040Z,2.10
2019-03-05T02:12:32.275Z,1.90
2019-03-05T02:14:59.576Z,2.60
2019-03-05T02:17:26.928Z,2.23
2019-03-05T02:19:54.208Z,1.93
2019-03-05T02:22:33.612Z,2.13
2019-03-05T02:25:34.185Z,2.37
2019-03-05T02:28:49.156Z,2.17
2019-03-05T02:31:57.172Z,2.63
2019-03-05T02:34:53.488Z,3.07
2019-03-05T02:37:51.018Z,2.07
2019-03-05T02:40:34.540Z,2.43
2019-03-05T02:43:29.689Z,2.17
2019-03-05T02:46:11.308Z,1.50
2019-03-05T02:49:05.212Z,2.57
2019-03-05T02:52:02.219Z,1.97
2019-03-05T02:55:04.711Z,2.30
2019-03-05T02:57:31.061Z,1.93
2019-03-05T02:59:58.325Z,2.63
2019-03-05T03:02:45.199Z,2.03
2019-03-05T03:05:45.602Z,1.87
2019-03-05T03:08:12.862Z,2.67
2019-03-05T03:10:40.206Z,2.27
2019-03-05T03:13:07.567Z,2.47
2019-03-05T03:15:34.830Z,2.00
2019-03-05T03:18:02.127Z,2.20
2019-03-05T03:20:29.405Z,2.20
2019-03-05T03:22:56.666Z,2.17
2019-03-05T03:25:24.166Z,2.20
2019-03-05T03:27:51.699Z,2.00
2019-03-05T03:30:21.162Z,1.70
2019-03-05T03:32:48.435Z,1.83
2019-03-05T03:35:15.901Z,1.67
2019-03-05T03:37:43.178Z,1.27
2019-03-05T03:40:12.838Z,1.57
2019-03-05T03:42:40.104Z,1.17
2019-03-05T03:45:09.500Z,1.17
2019-03-05T03:47:36.727Z,1.20
2019-03-05T03:50:04.094Z,1.00
2019-03-05T03:52:31.334Z,1.30
2019-03-05T03:54:58.593Z,0.97
2019-03-05T03:57:25.949Z,1.00
2019-03-05T03:59:53.190Z,1.47
2019-03-05T04:02:20.467Z,1.43
2019-03-05T04:04:47.725Z,1.70
2019-03-05T04:07:15.035Z,1.57
2019-03-05T04:09:42.287Z,1.80
2019-03-05T04:12:09.531Z,2.20
2019-03-05T04:14:36.794Z,2.00
2019-03-05T04:17:04.064Z,2.23
2019-03-05T04:19:33.304Z,2.30
2019-03-05T04:22:00.691Z,1.97
2019-03-05T04:24:27.922Z,2.03
2019-03-05T04:26:55.286Z,2.07
2019-03-05T04:29:22.727Z,1.67
2019-03-05T04:31:49.973Z,1.57
2019-03-05T04:34:17.229Z,1.43
2019-03-05T04:36:44.490Z,1.23
2019-03-05T04:39:11.732Z,1.90
2019-03-05T04:41:39.127Z,1.37
2019-03-05T04:44:06.362Z,2.07
2019-03-05T04:46:34.528Z,1.67
2019-03-05T04:49:19.845Z,1.33
2019-03-05T04:52:02.409Z,1.97
2019-03-05T04:54:29.663Z,2.27
2019-03-05T04:56:56.908Z,1.60
2019-03-05T04:59:24.185Z,2.00
2019-03-05T05:01:51.504Z,1.50
2019-03-05T05:04:18.759Z,2.03
2019-03-05T05:06:46.012Z,1.93
2019-03-05T05:09:13.261Z,2.00
2019-03-05T05:11:40.524Z,2.07
2019-03-05T05:14:07.773Z,2.07
2019-03-05T05:16:35.259Z,1.97
2019-03-05T05:19:02.698Z,2.40
2019-03-05T05:21:29.960Z,2.00
2019-03-05T05:23:57.210Z,1.37
2019-03-05T05:26:24.530Z,1.93
2019-03-05T05:28:51.794Z,2.03
2019-03-05T05:31:19.055Z,2.50
2019-03-05T05:33:46.307Z,2.00
2019-03-05T05:36:13.604Z,2.17
2019-03-05T05:38:40.859Z,2.73
2019-03-05T05:41:08.104Z,2.37
2019-03-05T05:43:35.390Z,1.90
2019-03-05T05:46:02.666Z,2.27
2019-03-05T05:48:29.906Z,2.00
2019-03-05T05:50:57.167Z,3.07
2019-03-05T05:53:24.536Z,2.57
2019-03-05T05:55:51.851Z,2.73
2019-03-05T05:58:19.208Z,3.60
2019-03-05T06:00:52.009Z,3.13
2019-03-05T06:03:19.343Z,2.60
2019-03-05T06:05:47.265Z,2.10
2019-03-05T06:08:14.500Z,2.50
2019-03-05T06:10:41.880Z,2.50
2019-03-05T06:13:09.156Z,2.77
2019-03-05T06:15:36.426Z,2.90
2019-03-05T06:18:03.720Z,2.70
2019-03-05T06:20:31.057Z,2.57
2019-03-05T06:22:58.360Z,3.20
2019-03-05T06:25:25.609Z,2.73
2019-03-05T06:27:52.890Z,2.70
2019-03-05T06:30:20.244Z,2.77
2019-03-05T06:32:47.480Z,3.33
2019-03-05T06:35:14.732Z,2.63
2019-03-05T06:37:42.004Z,2.60
2019-03-05T06:40:11.729Z,3.67
2019-03-05T06:42:39.015Z,2.80
2019-03-05T06:45:07.944Z,1.40
2019-03-05T06:47:35.320Z,1.60
2019-03-05T06:50:02.759Z,2.30
2019-03-05T06:52:30.036Z,2.23
2019-03-05T06:54:57.302Z,2.03
2019-03-05T06:57:24.595Z,1.50
2019-03-05T06:59:51.838Z,2.33
2019-03-05T07:02:19.063Z,1.83
2019-03-05T07:04:55.894Z,2.03
2019-03-05T07:07:23.656Z,1.43
2019-03-05T07:10:16.218Z,1.80
2019-03-05T07:13:01.066Z,2.03
2019-03-05T07:16:09.472Z,3.47
2019-03-05T07:19:00.695Z,3.40
2019-03-05T07:22:10.694Z,1.47
2019-03-05T07:24:48.375Z,1.80
2019-03-05T07:27:21.552Z,1.07
2019-03-05T07:29:48.888Z,1.27
2019-03-05T07:32:16.118Z,1.23
2019-03-05T07:34:45.259Z,1.33
2019-03-05T07:37:12.804Z,1.40
2019-03-05T07:39:40.079Z,1.53
2019-03-05T07:42:07.327Z,1.40
2019-03-05T07:44:34.582Z,0.87
2019-03-05T07:47:01.848Z,1.37
2019-03-05T07:49:29.120Z,1.27
2019-03-05T07:51:56.388Z,1.13
2019-03-05T07:54:23.633Z,1.27
2019-03-05T07:56:50.897Z,1.00
2019-03-05T07:59:18.173Z,0.90
2019-03-05T08:01:45.427Z,1.17
2019-03-05T08:04:12.692Z,1.27
2019-03-05T08:06:39.947Z,1.20
2019-03-05T08:09:43.150Z,1.10
2019-03-05T08:12:32.048Z,0.67
2019-03-05T08:15:06.742Z,1.33
2019-03-05T08:17:34.014Z,0.60
2019-03-05T08:20:01.250Z,1.00
2019-03-05T08:22:28.611Z,2.03
2019-03-05T08:24:56.015Z,2.30
2019-03-05T08:27:23.256Z,2.27
2019-03-05T08:29:50.524Z,1.67
2019-03-05T08:32:17.785Z,2.87
2019-03-05T08:34:45.023Z,1.20
2019-03-05T08:37:13.552Z,1.17
2019-03-05T08:39:40.960Z,1.30
2019-03-05T08:42:08.191Z,1.03
2019-03-05T08:44:35.464Z,1.07
2019-03-05T08:47:02.818Z,1.70
2019-03-05T08:49:30.255Z,1.00
2019-03-05T08:51:57.595Z,0.70
2019-03-05T08:54:24.964Z,1.03
2019-03-05T08:56:52.397Z,1.30
2019-03-05T08:59:19.699Z,0.90
2019-03-05T09:01:47.374Z,1.10
2019-03-05T09:04:14.631Z,1.47
2019-03-05T09:06:41.867Z,1.53
2019-03-05T09:09:11.476Z,1.30
2019-03-05T09:11:38.736Z,0.93
2019-03-05T09:14:06.385Z,0.93
2019-03-05T09:16:33.715Z,1.07
2019-03-05T09:19:00.967Z,1.00
2019-03-05T09:21:28.231Z,0.93
2019-03-05T09:23:55.481Z,1.40
2019-03-05T09:26:22.730Z,1.03
2019-03-05T09:28:50.003Z,0.73
2019-03-05T09:31:17.349Z,1.20
2019-03-05T09:33:44.623Z,0.80
2019-03-05T09:36:11.891Z,0.90
2019-03-05T09:38:39.139Z,1.20
2019-03-05T09:41:06.396Z,1.50
2019-03-05T09:43:33.631Z,0.80
2019-03-05T09:46:00.869Z,1.10
2019-03-05T09:48:28.107Z,1.10
2019-03-05T09:50:55.353Z,0.83
2019-03-05T09:53:22.597Z,0.60
2019-03-05T09:55:49.859Z,0.63
2019-03-05T09:58:18.919Z,0.43
2019-03-05T10:00:46.169Z,0.53
2019-03-05T10:03:13.535Z,0.40
2019-03-05T10:05:40.835Z,0.20
2019-03-05T10:08:08.340Z,0.30
2019-03-05T10:10:35.613Z,0.60
2019-03-05T10:13:04.427Z,0.63
2019-03-05T10:15:32.029Z,0.30
2019-03-05T10:17:59.275Z,0.20
2019-03-05T10:20:26.559Z,0.40
2019-03-05T10:22:53.840Z,0.50
2019-03-05T10:25:21.815Z,0.43
2019-03-05T10:27:49.210Z,1.17
2019-03-05T10:30:24.913Z,1.20
2019-03-05T10:32:48.247Z,2.07
2019-03-05T10:35:15.607Z,1.07
2019-03-05T10:37:42.869Z,1.10
2019-03-05T10:40:11.896Z,0.80
2019-03-05T10:42:41.215Z,0.20
2019-03-05T10:45:12.731Z,0.20
2019-03-05T10:47:40.040Z,0.43
2019-03-05T10:50:15.384Z,0.50
2019-03-05T10:52:39.585Z,0.50
2019-03-05T10:55:07.223Z,0.30
2019-03-05T10:57:34.524Z,0.40
2019-03-05T11:00:01.753Z,0.50
2019-03-05T11:02:29.106Z,0.30
2019-03-05T11:04:56.359Z,0.60
2019-03-05T11:07:23.585Z,0.50
2019-03-05T11:09:52.047Z,0.80
2019-03-05T11:12:19.348Z,1.10
2019-03-05T11:14:46.696Z,0.57
2019-03-05T11:17:14.137Z,0.43
2019-03-05T11:19:41.425Z,0.30
2019-03-05T11:22:08.823Z,0.60
2019-03-05T11:24:36.091Z,0.50
2019-03-05T11:27:03.480Z,0.37
2019-03-05T11:29:30.835Z,0.33
2019-03-05T11:31:58.094Z,0.97
2019-03-05T11:34:25.348Z,0.33
2019-03-05T11:36:52.599Z,0.40
2019-03-05T11:39:19.855Z,0.50
2019-03-05T11:41:47.099Z,0.60
2019-03-05T11:44:14.355Z,1.10
2019-03-05T11:46:41.729Z,0.80
2019-03-05T11:49:08.987Z,0.70
2019-03-05T11:51:36.263Z,1.20
2019-03-05T11:54:03.528Z,1.63
2019-03-05T11:56:30.764Z,1.10
2019-03-05T11:58:58.043Z,1.00
2019-03-05T12:01:32.701Z,1.00
2019-03-05T12:04:00.016Z,1.37
2019-03-05T12:06:27.385Z,1.50
2019-03-05T12:08:54.748Z,1.00
2019-03-05T12:11:22.056Z,0.87
2019-03-05T12:13:49.328Z,0.70
2019-03-05T12:16:16.599Z,1.00
2019-03-05T12:18:43.840Z,0.60
2019-03-05T12:21:11.091Z,0.60
2019-03-05T12:23:38.418Z,0.80
2019-03-05T12:26:05.648Z,0.40
2019-03-05T12:28:32.936Z,0.77
2019-03-05T12:31:00.169Z,0.50
2019-03-05T12:33:27.449Z,0.30
2019-03-05T12:35:54.702Z,0.70
2019-03-05T12:38:21.960Z,0.90
2019-03-05T12:40:49.235Z,1.10
2019-03-05T12:43:16.460Z,0.97
2019-03-05T12:45:43.691Z,0.90
2019-03-05T12:48:10.932Z,0.53
2019-03-05T12:50:38.172Z,0.60
2019-03-05T12:53:06.495Z,0.40
2019-03-05T12:55:33.787Z,0.30
2019-03-05T12:58:01.129Z,0.37
2019-03-05T13:00:28.978Z,0.23
2019-03-05T13:02:56.244Z,0.10
2019-03-05T13:05:23.572Z,0.10
2019-03-05T13:07:52.542Z,0.20
2019-03-05T13:10:20.868Z,0.10
2019-03-05T13:12:48.142Z,0.20
2019-03-05T13:15:18.160Z,0.20
2019-03-05T13:17:47.089Z,0.10
2019-03-05T13:20:15.140Z,0.30
2019-03-05T13:22:42.662Z,0.20
2019-03-05T13:25:10.923Z,0.10
2019-03-05T13:27:38.206Z,0.00
2019-03-05T13:30:10.352Z,0.10
2019-03-05T13:32:37.467Z,0.10
2019-03-05T13:35:06.039Z,0.27
2019-03-05T13:37:33.322Z,0.20
2019-03-05T13:40:00.581Z,0.10
2019-03-05T13:42:29.139Z,0.30
2019-03-05T13:44:57.313Z,0.20
2019-03-05T13:47:24.824Z,0.47
2019-03-05T13:50:36.496Z,0.23
2019-03-05T13:53:22.593Z,0.30
2019-03-05T13:56:27.651Z,0.10
2019-03-05T13:59:45.287Z,0.40
2019-03-05T14:02:27.238Z,0.50
2019-03-05T14:05:21.273Z,0.20
2019-03-05T14:08:29.505Z,0.40
2019-03-05T14:10:56.991Z,0.30
2019-03-05T14:13:24.260Z,0.40
2019-03-05T14:15:51.681Z,0.40
2019-03-05T14:18:19.029Z,0.13
2019-03-05T14:20:46.394Z,0.40
2019-03-05T14:23:13.748Z,0.65
2019-03-05T14:25:40.992Z,0.40
2019-03-05T14:28:08.283Z,0.20
2019-03-05T14:30:36.231Z,0.20
2019-03-05T14:33:03.500Z,0.10
2019-03-05T14:35:31.740Z,0.30
2019-03-05T14:37:59.087Z,0.20
2019-03-05T14:40:28.812Z,0.20
2019-03-05T14:42:56.132Z,0.40
2019-03-05T14:45:25.655Z,0.60
2019-03-05T14:47:54.597Z,0.20
2019-03-05T14:50:21.904Z,0.20
2019-03-05T14:52:49.298Z,0.47
2019-03-05T14:55:16.560Z,0.60
2019-03-05T14:57:43.927Z,0.37
2019-03-05T15:00:13.498Z,0.20
2019-03-05T15:02:40.808Z,0.70
2019-03-05T15:05:08.693Z,0.20
2019-03-05T15:07:36.070Z,0.10
2019-03-05T15:10:06.881Z,0.30
2019-03-05T15:12:34.439Z,0.20
2019-03-05T15:15:01.737Z,0.23
2019-03-05T15:17:29.063Z,0.30
2019-03-05T15:19:56.495Z,0.20
2019-03-05T15:22:23.878Z,0.30
2019-03-05T15:24:51.163Z,0.20
2019-03-05T15:27:18.534Z,0.20
2019-03-05T15:29:45.892Z,0.40
2019-03-05T15:32:13.243Z,0.20
2019-03-05T15:34:40.557Z,0.30
2019-03-05T15:37:07.892Z,0.20
2019-03-05T15:39:35.176Z,0.20
2019-03-05T15:42:02.497Z,0.40
2019-03-05T15:44:29.851Z,0.90
2019-03-05T15:46:57.155Z,0.30
2019-03-05T15:49:24.480Z,0.63
2019-03-05T15:51:51.841Z,0.40
2019-03-05T15:54:19.142Z,0.60
2019-03-05T15:56:46.384Z,0.43
2019-03-05T15:59:13.795Z,0.30
2019-03-05T16:01:41.103Z,0.47
2019-03-05T16:04:08.336Z,0.90
2019-03-05T16:06:35.599Z,1.50
2019-03-05T16:09:07.049Z,1.00
2019-03-05T16:11:35.160Z,0.40
2019-03-05T16:14:02.579Z,0.83
2019-03-05T16:16:30.119Z,0.43
2019-03-05T16:18:57.344Z,0.80
2019-03-05T16:21:24.607Z,0.40
2019-03-05T16:23:51.837Z,0.40
2019-03-05T16:26:19.171Z,0.40
2019-03-05T16:28:46.619Z,0.77
2019-03-05T16:31:32.059Z,0.63
2019-03-05T16:34:21.467Z,0.80
2019-03-05T16:37:08.216Z,0.63
2019-03-05T16:40:33.091Z,0.60
2019-03-05T16:43:11.293Z,0.60
2019-03-05T16:45:59.324Z,1.10
2019-03-05T16:48:44.863Z,0.90
2019-03-05T16:51:37.981Z,1.10
2019-03-05T16:54:37.330Z,0.73
2019-03-05T16:57:24.729Z,0.63
2019-03-05T17:00:11.516Z,0.80
2019-03-05T17:02:57.111Z,1.70
2019-03-05T17:06:10.111Z,1.10
2019-03-05T17:08:55.264Z,0.53
2019-03-05T17:11:57.369Z,0.80
2019-03-05T17:14:25.138Z,1.10
2019-03-05T17:16:52.545Z,0.77
2019-03-05T17:19:19.860Z,0.90
2019-03-05T17:21:47.385Z,1.20
2019-03-05T17:24:15.431Z,0.90
2019-03-05T17:26:42.683Z,1.10
2019-03-05T17:29:09.962Z,1.70
2019-03-05T17:31:37.307Z,1.67
2019-03-05T17:34:04.654Z,1.27
2019-03-05T17:36:31.901Z,1.50
2019-03-05T17:38:59.315Z,1.13
2019-03-05T17:41:26.739Z,0.90
2019-03-05T17:43:54.472Z,1.00
2019-03-05T17:46:22.815Z,0.80
2019-03-05T17:48:50.226Z,1.00
2019-03-05T17:51:17.479Z,1.40
2019-03-05T17:53:44.809Z,1.20
2019-03-05T17:56:12.048Z,1.47
2019-03-05T17:58:39.324Z,1.60
2019-03-05T18:01:09.113Z,1.60
2019-03-05T18:03:36.773Z,1.80
2019-03-05T18:06:04.347Z,1.30
2019-03-05T18:08:31.714Z,0.80
2019-03-05T18:11:02.117Z,1.00
2019-03-05T18:13:29.651Z,1.00
2019-03-05T18:15:59.369Z,1.47
2019-03-05T18:18:26.797Z,1.60
2019-03-05T18:20:54.793Z,2.03
2019-03-05T18:23:23.896Z,1.80
2019-03-05T18:25:52.141Z,1.30
2019-03-05T18:28:23.341Z,1.30
2019-03-05T18:30:53.688Z,0.87
2019-03-05T18:33:22.870Z,0.93
2019-03-05T18:35:52.484Z,1.20
2019-03-05T18:38:20.634Z,1.33
2019-03-05T18:40:49.082Z,1.40
2019-03-05T18:43:16.673Z,1.10
2019-03-05T18:46:33.200Z,0.80
2019-03-05T18:49:51.782Z,1.00
2019-03-05T18:53:17.354Z,1.23
2019-03-05T18:56:03.694Z,1.50
2019-03-05T18:58:35.973Z,1.50
2019-03-05T19:01:19.841Z,1.30
2019-03-05T19:03:54.297Z,2.40
2019-03-05T19:06:32.181Z,1.87
2019-03-05T19:09:03.246Z,2.20
2019-03-05T19:11:44.120Z,2.10
2019-03-05T19:14:21.338Z,2.63
2019-03-05T19:16:49.393Z,2.63
2019-03-05T19:19:16.725Z,3.20
2019-03-05T19:21:44.202Z,3.93
2019-03-05T19:24:11.542Z,3.93
2019-03-05T19:26:38.860Z,5.30
2019-03-05T19:29:06.158Z,4.70
2019-03-05T19:31:33.627Z,3.57
2019-03-05T19:34:00.971Z,3.77
2019-03-05T19:36:28.329Z,4.97
2019-03-05T19:38:55.723Z,5.27
2019-03-05T19:41:23.006Z,6.17
2019-03-05T19:43:50.805Z,5.97
2019-03-05T19:46:18.142Z,5.70
2019-03-05T19:48:45.376Z,4.87
2019-03-05T19:51:14.227Z,6.10
2019-03-05T19:53:41.495Z,5.47
2019-03-05T19:56:08.715Z,5.30
2019-03-05T19:58:36.285Z,6.27
2019-03-05T20:01:16.267Z,5.37
2019-03-05T20:03:43.584Z,5.80
2019-03-05T20:06:12.020Z,5.70
2019-03-05T20:08:40.394Z,6.43
2019-03-05T20:11:07.983Z,6.83
2019-03-05T20:13:35.355Z,7.87
2019-03-05T20:16:03.544Z,7.53
2019-03-05T20:18:31.079Z,9.80
2019-03-05T20:20:58.319Z,14.00
2019-03-05T20:23:25.704Z,10.50
2019-03-05T20:25:53.247Z,9.87
2019-03-05T20:28:20.562Z,9.47
2019-03-05T20:30:47.936Z,10.27
2019-03-05T20:33:15.195Z,9.20
2019-03-05T20:35:42.637Z,9.60
2019-03-05T20:38:10.196Z,8.97
2019-03-05T20:40:37.515Z,9.97
2019-03-05T20:43:04.940Z,10.50
2019-03-05T20:45:32.799Z,8.77
2019-03-05T20:48:01.420Z,9.50
2019-03-05T20:50:29.206Z,9.57
2019-03-05T20:52:59.844Z,9.50
2019-03-05T20:55:34.516Z,10.07
2019-03-05T20:58:02.308Z,11.03
2019-03-05T21:00:30.237Z,11.10
2019-03-05T21:03:01.992Z,9.60
2019-03-05T21:05:36.917Z,11.43
2019-03-05T21:08:04.648Z,10.83
2019-03-05T21:10:31.979Z,11.60
2019-03-05T21:12:59.246Z,12.23
2019-03-05T21:15:26.851Z,12.33
2019-03-05T21:17:54.178Z,11.03
2019-03-05T21:20:21.442Z,11.37
2019-03-05T21:22:49.096Z,12.27
2019-03-05T21:25:16.427Z,11.93
2019-03-05T21:27:43.977Z,12.10
2019-03-05T21:30:13.728Z,11.23
2019-03-05T21:32:40.959Z,12.37
2019-03-05T21:35:08.600Z,10.90
2019-03-05T21:37:36.099Z,11.37
2019-03-05T21:40:04.392Z,10.70
2019-03-05T21:42:32.044Z,10.80
2019-03-05T21:44:59.383Z,12.13
2019-03-05T21:47:26.666Z,11.87
2019-03-05T21:49:53.948Z,11.17
2019-03-05T21:52:21.435Z,11.90
2019-03-05T21:54:49.948Z,11.23
2019-03-05T21:57:17.381Z,11.43
2019-03-05T21:59:44.636Z,11.03
2019-03-05T22:02:11.901Z,10.70
2019-03-05T22:04:39.212Z,11.43
2019-03-05T22:07:06.748Z,11.93
2019-03-05T22:09:34.012Z,11.07
2019-03-05T22:12:01.456Z,10.97
2019-03-05T22:14:28.701Z,10.93
2019-03-05T22:16:55.987Z,9.60
2019-03-05T22:19:25.560Z,8.70
2019-03-05T22:21:53.138Z,9.03
2019-03-05T22:24:20.438Z,8.23
2019-03-05T22:26:47.938Z,8.80
2019-03-05T22:29:15.226Z,7.60
2019-03-05T22:31:42.650Z,8.47
2019-03-05T22:34:10.009Z,8.60
2019-03-05T22:36:37.404Z,9.40
2019-03-05T22:39:06.291Z,9.13
2019-03-05T22:41:33.724Z,9.83
2019-03-05T22:44:01.116Z,8.87
2019-03-05T22:46:28.473Z,8.27
2019-03-05T22:48:55.942Z,7.20
2019-03-05T22:51:24.502Z,7.90
2019-03-05T22:53:52.058Z,7.23
2019-03-05T22:56:19.321Z,6.67
2019-03-05T22:58:46.638Z,6.37
2019-03-05T23:01:21.633Z,6.73
2019-03-05T23:03:58.937Z,6.73
2019-03-05T23:06:26.551Z,7.40
2019-03-05T23:08:53.905Z,5.93
2019-03-05T23:11:21.330Z,6.07
2019-03-05T23:13:52.792Z,6.23
2019-03-05T23:16:20.148Z,6.97
2019-03-05T23:18:47.389Z,6.50
2019-03-05T23:21:15.163Z,5.30
2019-03-05T23:23:42.419Z,6.57
2019-03-05T23:26:10.005Z,5.53
2019-03-05T23:28:37.793Z,5.13
2019-03-05T23:31:05.926Z,5.30
2019-03-05T23:33:33.195Z,4.90
2019-03-05T23:36:00.592Z,5.37
2019-03-05T23:38:27.946Z,5.53
2019-03-05T23:40:55.220Z,6.50
2019-03-05T23:43:22.473Z,6.33
2019-03-05T23:45:49.883Z,5.33
2019-03-05T23:48:17.223Z,6.23
2019-03-05T23:50:44.497Z,6.67
2019-03-05T23:53:12.138Z,6.40
2019-03-05T23:55:39.701Z,6.07
2019-03-05T23:58:07.052Z,6.30
